sensor_id;sensor_type;location;lat;lon;timestamp;pressure;altitude;pressure_sealevel;temperature;humidity
16094;BME280;8151;47.824;12.092;2023-04-06T00:00:50;96525.31;;;2.39;51.76
16094;BME280;8151;47.824;12.092;2023-04-06T00:03:19;96528.47;;;2.31;51.92
16094;BME280;8151;47.824;12.092;2023-04-06T00:05:48;96522.53;;;2.29;52.01
16094;BME280;8151;47.824;12.092;2023-04-06T00:08:16;96528.44;;;2.20;52.16
16094;BME280;8151;47.824;12.092;2023-04-06T00:10:47;96530.06;;;2.21;52.47
16094;BME280;8151;47.824;12.092;2023-04-06T00:13:15;96526.44;;;2.23;52.24
16094;BME280;8151;47.824;12.092;2023-04-06T00:15:44;96525.00;;;2.19;52.27
16094;BME280;8151;47.824;12.092;2023-04-06T00:18:12;96522.03;;;2.24;52.25
16094;BME280;8151;47.824;12.092;2023-04-06T00:20:41;96525.38;;;2.26;52.20
16094;BME280;8151;47.824;12.092;2023-04-06T00:23:09;96524.63;;;2.24;52.16
16094;BME280;8151;47.824;12.092;2023-04-06T00:25:38;96519.78;;;2.19;52.32
16094;BME280;8151;47.824;12.092;2023-04-06T00:28:08;96514.25;;;2.11;52.57
16094;BME280;8151;47.824;12.092;2023-04-06T00:30:39;96521.38;;;2.09;52.65
16094;BME280;8151;47.824;12.092;2023-04-06T00:33:08;96517.31;;;2.05;52.81
16094;BME280;8151;47.824;12.092;2023-04-06T00:35:36;96525.59;;;1.99;52.95
16094;BME280;8151;47.824;12.092;2023-04-06T00:38:05;96518.66;;;1.86;53.24
16094;BME280;8151;47.824;12.092;2023-04-06T00:40:34;96512.50;;;1.87;53.38
16094;BME280;8151;47.824;12.092;2023-04-06T00:43:02;96518.31;;;1.91;53.28
16094;BME280;8151;47.824;12.092;2023-04-06T00:45:32;96505.66;;;1.97;53.36
16094;BME280;8151;47.824;12.092;2023-04-06T00:48:01;96517.22;;;2.06;52.91
16094;BME280;8151;47.824;12.092;2023-04-06T00:50:30;96515.94;;;2.12;52.95
16094;BME280;8151;47.824;12.092;2023-04-06T00:53:02;96516.75;;;2.12;53.28
16094;BME280;8151;47.824;12.092;2023-04-06T00:55:31;96518.75;;;2.09;53.15
16094;BME280;8151;47.824;12.092;2023-04-06T00:58:00;96511.72;;;1.98;53.27
16094;BME280;8151;47.824;12.092;2023-04-06T01:00:29;96516.22;;;1.96;53.43
16094;BME280;8151;47.824;12.092;2023-04-06T01:02:59;96517.06;;;1.96;53.54
16094;BME280;8151;47.824;12.092;2023-04-06T01:05:28;96506.38;;;2.00;53.26
16094;BME280;8151;47.824;12.092;2023-04-06T01:07:56;96512.91;;;2.05;53.36
16094;BME280;8151;47.824;12.092;2023-04-06T01:10:26;96524.81;;;2.09;53.30
16094;BME280;8151;47.824;12.092;2023-04-06T01:12:54;96515.09;;;2.11;53.24
16094;BME280;8151;47.824;12.092;2023-04-06T01:15:23;96516.97;;;2.09;53.24
16094;BME280;8151;47.824;12.092;2023-04-06T01:17:52;96518.66;;;2.10;53.33
16094;BME280;8151;47.824;12.092;2023-04-06T01:20:22;96514.25;;;2.11;53.44
16094;BME280;8151;47.824;12.092;2023-04-06T01:22:52;96517.81;;;2.10;53.39
16094;BME280;8151;47.824;12.092;2023-04-06T01:25:20;96514.09;;;2.01;53.50
16094;BME280;8151;47.824;12.092;2023-04-06T01:27:49;96512.66;;;1.97;53.51
16094;BME280;8151;47.824;12.092;2023-04-06T01:30:18;96509.22;;;1.96;53.49
16094;BME280;8151;47.824;12.092;2023-04-06T01:32:46;96511.09;;;1.94;53.66
16094;BME280;8151;47.824;12.092;2023-04-06T01:35:15;96509.06;;;1.87;53.77
16094;BME280;8151;47.824;12.092;2023-04-06T01:37:43;96506.91;;;1.81;53.96
16094;BME280;8151;47.824;12.092;2023-04-06T01:40:18;96507.72;;;1.81;53.81
16094;BME280;8151;47.824;12.092;2023-04-06T01:42:47;96512.94;;;1.81;53.65
16094;BME280;8151;47.824;12.092;2023-04-06T01:45:16;96499.44;;;1.63;53.88
16094;BME280;8151;47.824;12.092;2023-04-06T01:47:45;96505.94;;;1.45;54.48
16094;BME280;8151;47.824;12.092;2023-04-06T01:50:13;96506.28;;;1.40;54.53
16094;BME280;8151;47.824;12.092;2023-04-06T01:52:42;96504.31;;;1.44;54.29
16094;BME280;8151;47.824;12.092;2023-04-06T01:55:11;96502.53;;;1.44;54.61
16094;BME280;8151;47.824;12.092;2023-04-06T01:57:50;96505.75;;;1.48;54.59
16094;BME280;8151;47.824;12.092;2023-04-06T02:00:19;96508.25;;;1.49;54.24
16094;BME280;8151;47.824;12.092;2023-04-06T02:02:47;96508.47;;;1.46;54.32
16094;BME280;8151;47.824;12.092;2023-04-06T02:05:16;96503.25;;;1.46;54.20
16094;BME280;8151;47.824;12.092;2023-04-06T02:07:44;96512.72;;;1.47;54.02
16094;BME280;8151;47.824;12.092;2023-04-06T02:10:14;96504.47;;;1.53;53.98
16094;BME280;8151;47.824;12.092;2023-04-06T02:12:54;96506.75;;;1.58;54.11
16094;BME280;8151;47.824;12.092;2023-04-06T02:15:22;96509.03;;;1.63;54.19
16094;BME280;8151;47.824;12.092;2023-04-06T02:17:57;96508.19;;;1.62;53.88
16094;BME280;8151;47.824;12.092;2023-04-06T02:20:25;96507.47;;;1.60;53.94
16094;BME280;8151;47.824;12.092;2023-04-06T02:22:58;96507.38;;;1.62;54.12
16094;BME280;8151;47.824;12.092;2023-04-06T02:25:27;96502.06;;;1.63;54.30
16094;BME280;8151;47.824;12.092;2023-04-06T02:27:57;96503.22;;;1.59;54.08
16094;BME280;8151;47.824;12.092;2023-04-06T02:30:25;96503.09;;;1.61;54.09
16094;BME280;8151;47.824;12.092;2023-04-06T02:32:54;96498.41;;;1.53;54.48
16094;BME280;8151;47.824;12.092;2023-04-06T02:35:25;96499.47;;;1.50;54.40
16094;BME280;8151;47.824;12.092;2023-04-06T02:37:53;96511.88;;;1.47;54.39
16094;BME280;8151;47.824;12.092;2023-04-06T02:40:22;96510.66;;;1.40;54.66
16094;BME280;8151;47.824;12.092;2023-04-06T02:42:50;96511.53;;;1.27;55.01
16094;BME280;8151;47.824;12.092;2023-04-06T02:45:20;96514.16;;;1.14;55.14
16094;BME280;8151;47.824;12.092;2023-04-06T02:47:49;96512.91;;;1.07;55.17
16094;BME280;8151;47.824;12.092;2023-04-06T02:50:17;96512.28;;;1.04;55.14
16094;BME280;8151;47.824;12.092;2023-04-06T02:52:46;96503.50;;;1.05;55.45
16094;BME280;8151;47.824;12.092;2023-04-06T02:55:14;96499.78;;;1.09;55.12
16094;BME280;8151;47.824;12.092;2023-04-06T02:57:48;96500.06;;;1.17;55.46
16094;BME280;8151;47.824;12.092;2023-04-06T03:00:17;96512.25;;;1.29;54.91
16094;BME280;8151;47.824;12.092;2023-04-06T03:02:48;96501.50;;;1.34;55.05
16094;BME280;8151;47.824;12.092;2023-04-06T03:05:16;96504.72;;;1.37;54.81
16094;BME280;8151;47.824;12.092;2023-04-06T03:07:45;96504.59;;;1.39;54.99
16094;BME280;8151;47.824;12.092;2023-04-06T03:10:13;96506.50;;;1.37;55.20
16094;BME280;8151;47.824;12.092;2023-04-06T03:12:43;96501.81;;;1.29;54.98
16094;BME280;8151;47.824;12.092;2023-04-06T03:15:13;96497.25;;;1.20;55.37
16094;BME280;8151;47.824;12.092;2023-04-06T03:17:42;96501.72;;;1.18;55.40
16094;BME280;8151;47.824;12.092;2023-04-06T03:20:12;96495.91;;;1.14;55.48
16094;BME280;8151;47.824;12.092;2023-04-06T03:22:42;96500.19;;;1.15;55.53
16094;BME280;8151;47.824;12.092;2023-04-06T03:25:10;96500.38;;;1.12;55.50
16094;BME280;8151;47.824;12.092;2023-04-06T03:27:41;96501.34;;;1.11;55.83
16094;BME280;8151;47.824;12.092;2023-04-06T03:30:10;96507.28;;;1.13;55.45
16094;BME280;8151;47.824;12.092;2023-04-06T03:32:39;96506.34;;;1.14;55.41
16094;BME280;8151;47.824;12.092;2023-04-06T03:35:09;96508.81;;;1.16;55.44
16094;BME280;8151;47.824;12.092;2023-04-06T03:37:41;96500.72;;;1.08;55.56
16094;BME280;8151;47.824;12.092;2023-04-06T03:40:10;96512.47;;;1.01;55.56
16094;BME280;8151;47.824;12.092;2023-04-06T03:42:39;96511.25;;;0.93;55.56
16094;BME280;8151;47.824;12.092;2023-04-06T03:45:09;96513.34;;;0.88;56.17
16094;BME280;8151;47.824;12.092;2023-04-06T03:47:41;96520.31;;;0.88;55.84
16094;BME280;8151;47.824;12.092;2023-04-06T03:50:10;96514.06;;;0.90;56.06
16094;BME280;8151;47.824;12.092;2023-04-06T03:52:42;96517.38;;;0.92;56.10
16094;BME280;8151;47.824;12.092;2023-04-06T03:55:11;96520.22;;;0.89;55.55
16094;BME280;8151;47.824;12.092;2023-04-06T03:57:41;96520.81;;;0.93;55.98
16094;BME280;8151;47.824;12.092;2023-04-06T04:00:10;96528.44;;;0.96;55.59
16094;BME280;8151;47.824;12.092;2023-04-06T04:02:39;96525.84;;;0.96;55.82
16094;BME280;8151;47.824;12.092;2023-04-06T04:05:09;96523.34;;;0.94;55.74
16094;BME280;8151;47.824;12.092;2023-04-06T04:07:40;96532.19;;;0.92;55.76
16094;BME280;8151;47.824;12.092;2023-04-06T04:10:10;96528.13;;;0.88;55.87
16094;BME280;8151;47.824;12.092;2023-04-06T04:12:38;96529.78;;;0.89;56.02
16094;BME280;8151;47.824;12.092;2023-04-06T04:15:08;96532.72;;;0.84;55.83
16094;BME280;8151;47.824;12.092;2023-04-06T04:17:37;96530.22;;;0.83;55.75
16094;BME280;8151;47.824;12.092;2023-04-06T04:20:07;96531.44;;;0.77;56.19
16094;BME280;8151;47.824;12.092;2023-04-06T04:22:35;96535.31;;;0.71;56.13
16094;BME280;8151;47.824;12.092;2023-04-06T04:25:06;96537.41;;;0.66;56.55
16094;BME280;8151;47.824;12.092;2023-04-06T04:27:44;96540.09;;;0.65;56.21
16094;BME280;8151;47.824;12.092;2023-04-06T04:30:13;96528.88;;;0.64;56.46
16094;BME280;8151;47.824;12.092;2023-04-06T04:32:42;96539.47;;;0.61;56.24
16094;BME280;8151;47.824;12.092;2023-04-06T04:35:11;96540.38;;;0.47;56.30
16094;BME280;8151;47.824;12.092;2023-04-06T04:37:42;96538.28;;;0.39;56.55
16094;BME280;8151;47.824;12.092;2023-04-06T04:40:12;96543.69;;;0.36;56.58
16094;BME280;8151;47.824;12.092;2023-04-06T04:42:41;96538.28;;;0.39;56.62
16094;BME280;8151;47.824;12.092;2023-04-06T04:45:10;96547.06;;;0.51;56.86
16094;BME280;8151;47.824;12.092;2023-04-06T04:47:39;96543.75;;;0.62;56.04
16094;BME280;8151;47.824;12.092;2023-04-06T04:50:09;96550.00;;;0.72;56.38
16094;BME280;8151;47.824;12.092;2023-04-06T04:52:44;96542.41;;;0.82;55.81
16094;BME280;8151;47.824;12.092;2023-04-06T04:55:14;96549.06;;;0.86;56.04
16094;BME280;8151;47.824;12.092;2023-04-06T04:57:43;96547.19;;;0.88;55.65
16094;BME280;8151;47.824;12.092;2023-04-06T05:00:13;96546.66;;;0.83;55.88
16094;BME280;8151;47.824;12.092;2023-04-06T05:02:42;96552.09;;;0.80;55.98
16094;BME280;8151;47.824;12.092;2023-04-06T05:05:10;96552.19;;;0.78;56.07
16094;BME280;8151;47.824;12.092;2023-04-06T05:07:39;96552.19;;;0.78;56.19
16094;BME280;8151;47.824;12.092;2023-04-06T05:10:10;96549.78;;;0.75;56.26
16094;BME280;8151;47.824;12.092;2023-04-06T05:12:40;96554.59;;;0.69;56.40
16094;BME280;8151;47.824;12.092;2023-04-06T05:15:09;96552.28;;;0.64;56.70
16094;BME280;8151;47.824;12.092;2023-04-06T05:17:38;96555.00;;;0.63;56.71
16094;BME280;8151;47.824;12.092;2023-04-06T05:20:07;96554.69;;;0.54;56.54
16094;BME280;8151;47.824;12.092;2023-04-06T05:22:36;96550.72;;;0.49;57.07
16094;BME280;8151;47.824;12.092;2023-04-06T05:25:05;96552.25;;;0.51;57.00
16094;BME280;8151;47.824;12.092;2023-04-06T05:27:34;96555.59;;;0.53;56.91
16094;BME280;8151;47.824;12.092;2023-04-06T05:30:05;96556.13;;;0.58;56.60
16094;BME280;8151;47.824;12.092;2023-04-06T05:32:34;96555.00;;;0.63;56.74
16094;BME280;8151;47.824;12.092;2023-04-06T05:35:02;96558.09;;;0.68;56.46
16094;BME280;8151;47.824;12.092;2023-04-06T05:37:31;96556.34;;;0.68;57.10
16094;BME280;8151;47.824;12.092;2023-04-06T05:40:00;96555.00;;;0.63;57.06
16094;BME280;8151;47.824;12.092;2023-04-06T05:42:36;96558.84;;;0.70;57.41
16094;BME280;8151;47.824;12.092;2023-04-06T05:45:07;96554.47;;;0.83;56.84
16094;BME280;8151;47.824;12.092;2023-04-06T05:47:36;96551.47;;;0.89;56.90
16094;BME280;8151;47.824;12.092;2023-04-06T05:50:05;96555.94;;;1.00;56.90
16094;BME280;8151;47.824;12.092;2023-04-06T05:52:34;96559.91;;;1.06;56.73
16094;BME280;8151;47.824;12.092;2023-04-06T05:55:03;96559.38;;;1.01;57.13
16094;BME280;8151;47.824;12.092;2023-04-06T05:57:32;96555.63;;;1.17;57.23
16094;BME280;8151;47.824;12.092;2023-04-06T06:00:01;96556.53;;;1.42;57.00
16094;BME280;8151;47.824;12.092;2023-04-06T06:02:32;96558.56;;;1.63;56.88
16094;BME280;8151;47.824;12.092;2023-04-06T06:05:00;96560.97;;;1.79;56.40
16094;BME280;8151;47.824;12.092;2023-04-06T06:07:30;96561.72;;;1.92;56.28
16094;BME280;8151;47.824;12.092;2023-04-06T06:09:58;96561.69;;;2.05;56.01
16094;BME280;8151;47.824;12.092;2023-04-06T06:12:27;96568.75;;;2.15;56.05
16094;BME280;8151;47.824;12.092;2023-04-06T06:14:55;96563.81;;;2.24;56.16
16094;BME280;8151;47.824;12.092;2023-04-06T06:17:24;96564.31;;;2.29;56.23
16094;BME280;8151;47.824;12.092;2023-04-06T06:19:54;96556.03;;;2.35;56.29
16094;BME280;8151;47.824;12.092;2023-04-06T06:22:22;96561.84;;;2.39;56.23
16094;BME280;8151;47.824;12.092;2023-04-06T06:24:51;96562.44;;;2.42;56.40
16094;BME280;8151;47.824;12.092;2023-04-06T06:27:19;96563.50;;;2.40;56.50
16094;BME280;8151;47.824;12.092;2023-04-06T06:29:48;96562.91;;;2.36;56.76
16094;BME280;8151;47.824;12.092;2023-04-06T06:32:17;96566.00;;;2.41;56.88
16094;BME280;8151;47.824;12.092;2023-04-06T06:34:46;96559.25;;;2.50;56.31
16094;BME280;8151;47.824;12.092;2023-04-06T06:37:16;96559.56;;;2.58;56.70
16094;BME280;8151;47.824;12.092;2023-04-06T06:39:44;96566.69;;;2.67;56.35
16094;BME280;8151;47.824;12.092;2023-04-06T06:42:13;96564.56;;;2.72;56.53
16094;BME280;8151;47.824;12.092;2023-04-06T06:44:41;96568.00;;;2.73;56.51
16094;BME280;8151;47.824;12.092;2023-04-06T06:47:10;96573.72;;;2.78;56.59
16094;BME280;8151;47.824;12.092;2023-04-06T06:49:39;96572.09;;;2.88;56.84
16094;BME280;8151;47.824;12.092;2023-04-06T06:52:07;96568.91;;;2.96;56.77
16094;BME280;8151;47.824;12.092;2023-04-06T06:54:37;96568.56;;;3.01;56.82
16094;BME280;8151;47.824;12.092;2023-04-06T06:57:06;96562.88;;;3.07;56.97
16094;BME280;8151;47.824;12.092;2023-04-06T06:59:34;96565.00;;;3.13;56.93
16094;BME280;8151;47.824;12.092;2023-04-06T07:02:03;96567.03;;;3.21;57.00
16094;BME280;8151;47.824;12.092;2023-04-06T07:04:32;96568.94;;;3.30;57.04
16094;BME280;8151;47.824;12.092;2023-04-06T07:07:01;96570.72;;;3.41;56.88
16094;BME280;8151;47.824;12.092;2023-04-06T07:09:30;96576.94;;;3.51;57.02
16094;BME280;8151;47.824;12.092;2023-04-06T07:12:00;96580.22;;;3.64;57.10
16094;BME280;8151;47.824;12.092;2023-04-06T07:14:29;96573.19;;;3.76;56.63
16094;BME280;8151;47.824;12.092;2023-04-06T07:16:58;96571.66;;;3.85;56.81
16094;BME280;8151;47.824;12.092;2023-04-06T07:19:27;96570.44;;;3.89;56.52
16094;BME280;8151;47.824;12.092;2023-04-06T07:21:55;96571.75;;;3.94;56.33
16094;BME280;8151;47.824;12.092;2023-04-06T07:24:24;96569.00;;;4.07;56.62
16094;BME280;8151;47.824;12.092;2023-04-06T07:26:53;96565.63;;;4.17;56.15
16094;BME280;8151;47.824;12.092;2023-04-06T07:29:24;96558.47;;;4.19;56.00
16094;BME280;8151;47.824;12.092;2023-04-06T07:31:52;96563.09;;;4.26;56.29
16094;BME280;8151;47.824;12.092;2023-04-06T07:34:21;96566.66;;;4.37;56.25
16094;BME280;8151;47.824;12.092;2023-04-06T07:36:50;96574.59;;;4.46;55.69
16094;BME280;8151;47.824;12.092;2023-04-06T07:39:20;96570.63;;;4.52;56.08
16094;BME280;8151;47.824;12.092;2023-04-06T07:41:49;96562.28;;;4.58;55.52
16094;BME280;8151;47.824;12.092;2023-04-06T07:44:17;96557.63;;;4.62;55.66
16094;BME280;8151;47.824;12.092;2023-04-06T07:46:47;96564.69;;;4.71;55.60
16094;BME280;8151;47.824;12.092;2023-04-06T07:49:16;96562.88;;;4.83;55.75
16094;BME280;8151;47.824;12.092;2023-04-06T07:51:45;96555.91;;;4.93;55.39
16094;BME280;8151;47.824;12.092;2023-04-06T07:54:13;96558.56;;;5.03;55.11
16094;BME280;8151;47.824;12.092;2023-04-06T07:56:42;96552.00;;;5.08;55.40
16094;BME280;8151;47.824;12.092;2023-04-06T07:59:11;96549.53;;;5.17;55.46
16094;BME280;8151;47.824;12.092;2023-04-06T08:01:40;96546.84;;;5.28;55.05
16094;BME280;8151;47.824;12.092;2023-04-06T08:04:10;96543.97;;;5.41;55.01
16094;BME280;8151;47.824;12.092;2023-04-06T08:06:39;96548.75;;;5.57;54.26
16094;BME280;8151;47.824;12.092;2023-04-06T08:09:08;96546.75;;;5.70;54.27
16094;BME280;8151;47.824;12.092;2023-04-06T08:11:36;96551.75;;;5.83;54.42
16094;BME280;8151;47.824;12.092;2023-04-06T08:14:05;96547.63;;;5.90;54.33
16094;BME280;8151;47.824;12.092;2023-04-06T08:16:34;96539.09;;;5.98;54.23
16094;BME280;8151;47.824;12.092;2023-04-06T08:19:03;96542.00;;;6.04;54.75
16094;BME280;8151;47.824;12.092;2023-04-06T08:21:33;96543.81;;;6.14;54.23
16094;BME280;8151;47.824;12.092;2023-04-06T08:24:02;96535.38;;;6.20;54.16
16094;BME280;8151;47.824;12.092;2023-04-06T08:26:31;96540.09;;;6.26;54.14
16094;BME280;8151;47.824;12.092;2023-04-06T08:28:59;96538.84;;;6.30;54.34
16094;BME280;8151;47.824;12.092;2023-04-06T08:31:28;96539.00;;;6.28;53.94
16094;BME280;8151;47.824;12.092;2023-04-06T08:33:56;96542.72;;;6.36;54.30
16094;BME280;8151;47.824;12.092;2023-04-06T08:36:25;96537.91;;;6.41;53.63
16094;BME280;8151;47.824;12.092;2023-04-06T08:38:55;96547.16;;;6.55;53.75
16094;BME280;8151;47.824;12.092;2023-04-06T08:41:23;96536.78;;;6.63;53.54
16094;BME280;8151;47.824;12.092;2023-04-06T08:43:57;96536.75;;;6.73;53.54
16094;BME280;8151;47.824;12.092;2023-04-06T08:46:26;96544.38;;;6.85;53.24
16094;BME280;8151;47.824;12.092;2023-04-06T08:48:58;96537.97;;;6.98;53.56
16094;BME280;8151;47.824;12.092;2023-04-06T08:51:28;96534.63;;;7.05;53.80
16094;BME280;8151;47.824;12.092;2023-04-06T08:53:59;96534.91;;;7.12;53.68
16094;BME280;8151;47.824;12.092;2023-04-06T08:56:28;96528.41;;;7.16;53.44
16094;BME280;8151;47.824;12.092;2023-04-06T08:58:57;96542.47;;;7.25;53.79
16094;BME280;8151;47.824;12.092;2023-04-06T09:01:27;96533.47;;;7.37;53.45
16094;BME280;8151;47.824;12.092;2023-04-06T09:03:57;96535.38;;;7.45;53.54
16094;BME280;8151;47.824;12.092;2023-04-06T09:06:27;96532.25;;;7.59;53.52
16094;BME280;8151;47.824;12.092;2023-04-06T09:08:59;96537.47;;;7.69;53.09
16094;BME280;8151;47.824;12.092;2023-04-06T09:11:27;96534.50;;;7.82;53.04
16094;BME280;8151;47.824;12.092;2023-04-06T09:13:56;96537.19;;;8.00;52.68
16094;BME280;8151;47.824;12.092;2023-04-06T09:16:27;96532.53;;;8.12;52.46
16094;BME280;8151;47.824;12.092;2023-04-06T09:19:06;96532.47;;;8.21;52.42
16094;BME280;8151;47.824;12.092;2023-04-06T09:21:35;96523.13;;;8.27;52.61
16094;BME280;8151;47.824;12.092;2023-04-06T09:24:08;96520.41;;;8.37;52.22
16094;BME280;8151;47.824;12.092;2023-04-06T09:26:46;96518.41;;;8.48;52.03
16094;BME280;8151;47.824;12.092;2023-04-06T09:29:24;96517.50;;;8.58;51.50
16094;BME280;8151;47.824;12.092;2023-04-06T09:32:02;96512.75;;;8.61;51.29
16094;BME280;8151;47.824;12.092;2023-04-06T09:34:31;96514.59;;;8.61;51.28
16094;BME280;8151;47.824;12.092;2023-04-06T09:37:00;96520.53;;;8.63;51.36
16094;BME280;8151;47.824;12.092;2023-04-06T09:39:29;96511.09;;;8.60;51.08
16094;BME280;8151;47.824;12.092;2023-04-06T09:41:58;96516.38;;;8.60;51.54
16094;BME280;8151;47.824;12.092;2023-04-06T09:44:38;96511.91;;;8.79;50.59
16094;BME280;8151;47.824;12.092;2023-04-06T09:47:06;96510.69;;;8.91;50.41
16094;BME280;8151;47.824;12.092;2023-04-06T09:49:36;96508.97;;;9.08;50.09
16094;BME280;8151;47.824;12.092;2023-04-06T09:52:06;96505.56;;;9.16;49.75
16094;BME280;8151;47.824;12.092;2023-04-06T09:54:37;96492.84;;;9.11;49.14
16094;BME280;8151;47.824;12.092;2023-04-06T09:57:07;96492.88;;;9.19;49.60
16094;BME280;8151;47.824;12.092;2023-04-06T09:59:47;96496.75;;;9.33;49.38
16094;BME280;8151;47.824;12.092;2023-04-06T10:02:27;96499.28;;;9.43;48.97
16094;BME280;8151;47.824;12.092;2023-04-06T10:05:02;96491.38;;;9.51;48.46
16094;BME280;8151;47.824;12.092;2023-04-06T10:07:33;96493.72;;;9.54;48.91
16094;BME280;8151;47.824;12.092;2023-04-06T10:10:14;96488.31;;;9.64;48.53
16094;BME280;8151;47.824;12.092;2023-04-06T10:12:44;96486.13;;;9.59;48.36
16094;BME280;8151;47.824;12.092;2023-04-06T10:15:14;96488.44;;;9.54;47.77
16094;BME280;8151;47.824;12.092;2023-04-06T10:17:42;96483.84;;;9.64;48.29
16094;BME280;8151;47.824;12.092;2023-04-06T10:20:16;96474.16;;;9.81;47.40
16094;BME280;8151;47.824;12.092;2023-04-06T10:22:55;96475.66;;;9.84;46.80
16094;BME280;8151;47.824;12.092;2023-04-06T10:25:29;96477.00;;;9.88;46.83
16094;BME280;8151;47.824;12.092;2023-04-06T10:27:59;96476.69;;;9.99;47.08
16094;BME280;8151;47.824;12.092;2023-04-06T10:30:28;96479.69;;;10.21;46.34
16094;BME280;8151;47.824;12.092;2023-04-06T10:32:57;96477.28;;;10.36;46.77
16094;BME280;8151;47.824;12.092;2023-04-06T10:35:36;96463.38;;;10.58;45.67
16094;BME280;8151;47.824;12.092;2023-04-06T10:38:05;96465.53;;;10.79;45.49
16094;BME280;8151;47.824;12.092;2023-04-06T10:40:37;96465.34;;;10.97;45.01
16094;BME280;8151;47.824;12.092;2023-04-06T10:43:11;96465.63;;;11.11;44.60
16094;BME280;8151;47.824;12.092;2023-04-06T10:45:40;96454.38;;;11.25;44.21
16094;BME280;8151;47.824;12.092;2023-04-06T10:48:13;96467.06;;;11.38;44.23
16094;BME280;8151;47.824;12.092;2023-04-06T10:50:44;96465.38;;;11.45;44.42
16094;BME280;8151;47.824;12.092;2023-04-06T10:53:20;96461.94;;;11.36;43.54
16094;BME280;8151;47.824;12.092;2023-04-06T10:55:56;96457.50;;;11.20;44.64
16094;BME280;8151;47.824;12.092;2023-04-06T10:58:26;96460.56;;;10.93;44.76
16094;BME280;8151;47.824;12.092;2023-04-06T11:00:55;96456.44;;;10.57;44.68
16094;BME280;8151;47.824;12.092;2023-04-06T11:03:24;96455.63;;;10.32;44.29
16094;BME280;8151;47.824;12.092;2023-04-06T11:05:52;96455.41;;;10.17;44.75
16094;BME280;8151;47.824;12.092;2023-04-06T11:08:25;96452.09;;;10.15;44.56
16094;BME280;8151;47.824;12.092;2023-04-06T11:11:05;96448.97;;;10.28;43.47
16094;BME280;8151;47.824;12.092;2023-04-06T11:13:41;96445.16;;;10.22;43.92
16094;BME280;8151;47.824;12.092;2023-04-06T11:16:14;96443.34;;;10.23;44.14
16094;BME280;8151;47.824;12.092;2023-04-06T11:18:50;96447.97;;;10.29;43.22
16094;BME280;8151;47.824;12.092;2023-04-06T11:21:30;96442.91;;;10.36;43.61
16094;BME280;8151;47.824;12.092;2023-04-06T11:24:09;96435.44;;;10.56;42.87
16094;BME280;8151;47.824;12.092;2023-04-06T11:26:41;96438.91;;;10.81;43.04
16094;BME280;8151;47.824;12.092;2023-04-06T11:29:12;96435.38;;;10.97;42.70
16094;BME280;8151;47.824;12.092;2023-04-06T11:31:41;96432.25;;;10.93;42.41
16094;BME280;8151;47.824;12.092;2023-04-06T11:34:11;96427.16;;;10.92;42.17
16094;BME280;8151;47.824;12.092;2023-04-06T11:36:41;96425.94;;;11.02;42.49
16094;BME280;8151;47.824;12.092;2023-04-06T11:39:11;96418.94;;;11.18;42.59
16094;BME280;8151;47.824;12.092;2023-04-06T11:41:47;96410.09;;;11.42;41.65
16094;BME280;8151;47.824;12.092;2023-04-06T11:44:28;96415.66;;;11.55;41.61
16094;BME280;8151;47.824;12.092;2023-04-06T11:46:57;96413.81;;;11.64;42.17
16094;BME280;8151;47.824;12.092;2023-04-06T11:49:27;96413.97;;;11.62;41.47
16094;BME280;8151;47.824;12.092;2023-04-06T11:51:55;96416.50;;;11.56;41.65
16094;BME280;8151;47.824;12.092;2023-04-06T11:54:32;96416.13;;;11.67;40.95
16094;BME280;8151;47.824;12.092;2023-04-06T11:57:08;96399.13;;;11.85;41.12
16094;BME280;8151;47.824;12.092;2023-04-06T11:59:37;96396.91;;;11.96;41.07
16094;BME280;8151;47.824;12.092;2023-04-06T12:02:09;96395.56;;;12.00;41.21
16094;BME280;8151;47.824;12.092;2023-04-06T12:04:37;96404.34;;;12.01;41.22
16094;BME280;8151;47.824;12.092;2023-04-06T12:07:06;96396.06;;;11.96;41.34
16094;BME280;8151;47.824;12.092;2023-04-06T12:09:35;96399.94;;;11.85;41.77
16094;BME280;8151;47.824;12.092;2023-04-06T12:12:04;96403.38;;;11.62;41.45
16094;BME280;8151;47.824;12.092;2023-04-06T12:14:41;96395.19;;;11.41;41.36
16094;BME280;8151;47.824;12.092;2023-04-06T12:17:10;96405.50;;;11.28;41.08
16094;BME280;8151;47.824;12.092;2023-04-06T12:19:38;96392.63;;;11.16;41.38
16094;BME280;8151;47.824;12.092;2023-04-06T12:22:07;96393.00;;;11.13;41.03
16094;BME280;8151;47.824;12.092;2023-04-06T12:24:36;96389.44;;;11.29;40.49
16094;BME280;8151;47.824;12.092;2023-04-06T12:27:04;96382.97;;;11.63;40.48
16094;BME280;8151;47.824;12.092;2023-04-06T12:29:37;96382.38;;;11.92;40.10
16094;BME280;8151;47.824;12.092;2023-04-06T12:32:07;96378.28;;;12.05;40.23
16094;BME280;8151;47.824;12.092;2023-04-06T12:34:35;96377.00;;;12.00;40.18
16094;BME280;8151;47.824;12.092;2023-04-06T12:37:04;96369.97;;;12.08;40.27
16094;BME280;8151;47.824;12.092;2023-04-06T12:39:32;96369.69;;;12.02;40.01
16094;BME280;8151;47.824;12.092;2023-04-06T12:42:01;96365.44;;;11.93;40.26
16094;BME280;8151;47.824;12.092;2023-04-06T12:44:30;96364.00;;;11.82;40.61
16094;BME280;8151;47.824;12.092;2023-04-06T12:46:58;96370.19;;;11.75;40.86
16094;BME280;8151;47.824;12.092;2023-04-06T12:49:30;96365.28;;;11.63;40.68
16094;BME280;8151;47.824;12.092;2023-04-06T12:51:58;96375.78;;;11.49;41.17
16094;BME280;8151;47.824;12.092;2023-04-06T12:54:30;96368.53;;;11.42;40.93
16094;BME280;8151;47.824;12.092;2023-04-06T12:57:09;96367.06;;;11.40;40.98
16094;BME280;8151;47.824;12.092;2023-04-06T12:59:37;96370.31;;;11.50;40.61
16094;BME280;8151;47.824;12.092;2023-04-06T13:02:06;96359.88;;;11.80;40.62
16094;BME280;8151;47.824;12.092;2023-04-06T13:04:36;96356.13;;;11.97;40.01
16094;BME280;8151;47.824;12.092;2023-04-06T13:07:05;96349.19;;;12.19;39.80
16094;BME280;8151;47.824;12.092;2023-04-06T13:09:34;96347.22;;;12.51;39.48
16094;BME280;8151;47.824;12.092;2023-04-06T13:12:02;96355.41;;;12.79;39.22
16094;BME280;8151;47.824;12.092;2023-04-06T13:14:31;96345.63;;;12.80;39.17
16094;BME280;8151;47.824;12.092;2023-04-06T13:16:59;96344.38;;;12.68;39.45
16094;BME280;8151;47.824;12.092;2023-04-06T13:19:28;96342.75;;;12.67;39.42
16094;BME280;8151;47.824;12.092;2023-04-06T13:21:59;96342.22;;;12.86;39.04